createdAt,value
2018-03-22T00:01:21.920Z,17.75
2018-03-22T00:03:54.526Z,17.42
2018-03-22T00:06:26.047Z,15.50
2018-03-22T00:08:58.383Z,18.12
2018-03-22T00:11:30.500Z,20.60
2018-03-22T00:14:02.672Z,17.77
2018-03-22T00:16:35.247Z,17.90
2018-03-22T00:19:07.530Z,21.33
2018-03-22T00:21:39.755Z,16.67
2018-03-22T00:24:12.850Z,15.43
2018-03-22T00:26:44.851Z,16.37
2018-03-22T00:29:16.858Z,16.55
2018-03-22T00:31:48.655Z,14.55
2018-03-22T00:34:21.018Z,25.55
2018-03-22T00:36:53.418Z,16.08
2018-03-22T00:39:25.280Z,14.40
2018-03-22T00:41:57.276Z,18.85
2018-03-22T00:44:28.726Z,15.65
2018-03-22T00:47:00.402Z,17.98
2018-03-22T00:49:32.428Z,19.00
2018-03-22T00:52:03.919Z,18.80
2018-03-22T00:54:35.425Z,19.10
2018-03-22T00:57:07.200Z,18.27
2018-03-22T00:59:39.531Z,18.77
2018-03-22T01:02:11.732Z,18.40
2018-03-22T01:04:43.555Z,17.33
2018-03-22T01:07:14.720Z,17.27
2018-03-22T01:09:46.787Z,19.52
2018-03-22T01:12:18.280Z,15.77
2018-03-22T01:14:50.179Z,18.80
2018-03-22T01:17:23.134Z,16.08
2018-03-22T01:19:55.768Z,19.00
2018-03-22T01:22:27.700Z,17.98
2018-03-22T01:24:59.897Z,19.12
2018-03-22T01:27:30.990Z,20.20
2018-03-22T01:30:02.194Z,21.23
2018-03-22T01:32:33.724Z,16.08
2018-03-22T01:35:05.353Z,16.95
2018-03-22T01:37:36.483Z,22.13
2018-03-22T01:40:07.397Z,18.20
2018-03-22T01:42:38.802Z,19.30
2018-03-22T01:45:10.663Z,19.42
2018-03-22T01:47:43.000Z,20.00
2018-03-22T01:50:14.496Z,23.10
2018-03-22T01:52:54.685Z,19.50
2018-03-22T01:55:26.749Z,22.52
2018-03-22T01:57:58.299Z,18.80
2018-03-22T02:00:29.088Z,21.10
2018-03-22T02:03:01.152Z,21.17
2018-03-22T02:05:33.391Z,24.30
2018-03-22T02:08:05.077Z,25.88
2018-03-22T02:10:37.870Z,17.75
2018-03-22T02:13:08.927Z,20.52
2018-03-22T02:15:40.585Z,21.70
2018-03-22T02:18:11.991Z,22.30
2018-03-22T02:20:42.599Z,17.95
2018-03-22T02:23:14.037Z,25.25
2018-03-22T02:25:45.581Z,22.05
2018-03-22T02:28:16.742Z,22.25
2018-03-22T02:30:48.565Z,21.62
2018-03-22T02:33:19.799Z,26.27
2018-03-22T02:35:51.459Z,23.12
2018-03-22T02:38:23.171Z,21.92
2018-03-22T02:40:53.865Z,21.37
2018-03-22T02:43:24.599Z,20.73
2018-03-22T02:45:55.291Z,19.58
2018-03-22T02:48:26.228Z,21.17
2018-03-22T02:50:57.181Z,24.83
2018-03-22T02:53:27.736Z,23.67
2018-03-22T02:55:58.424Z,23.25
2018-03-22T02:58:29.977Z,24.15
2018-03-22T03:01:00.504Z,25.98
2018-03-22T03:03:31.191Z,22.48
2018-03-22T03:06:01.952Z,25.50
2018-03-22T03:08:32.437Z,25.80
2018-03-22T03:11:04.022Z,24.87
2018-03-22T03:13:35.995Z,25.73
2018-03-22T03:16:06.959Z,22.65
2018-03-22T03:18:37.578Z,24.75
2018-03-22T03:21:08.585Z,22.05
2018-03-22T03:24:41.772Z,23.45
2018-03-22T03:27:12.879Z,24.05
2018-03-22T03:29:43.810Z,25.42
2018-03-22T03:32:14.574Z,22.37
2018-03-22T03:34:46.310Z,27.92
2018-03-22T03:37:17.456Z,24.05
2018-03-22T03:39:48.038Z,24.63
2018-03-22T03:42:19.301Z,23.92
2018-03-22T03:44:49.952Z,22.95
2018-03-22T03:47:20.575Z,26.12
2018-03-22T03:49:51.581Z,22.02
2018-03-22T03:52:22.136Z,25.20
2018-03-22T03:54:52.700Z,23.40
2018-03-22T03:57:24.487Z,23.92
2018-03-22T03:59:55.270Z,25.23
2018-03-22T04:02:26.014Z,20.92
2018-03-22T04:04:56.774Z,26.75
2018-03-22T04:07:28.532Z,23.25
2018-03-22T04:09:59.804Z,23.30
2018-03-22T04:12:30.701Z,22.02
2018-03-22T04:15:01.356Z,22.70
2018-03-22T04:17:32.388Z,25.30
2018-03-22T04:20:03.624Z,20.05
2018-03-22T04:22:34.310Z,21.67
2018-03-22T04:25:04.958Z,20.85
2018-03-22T04:27:35.605Z,21.52
2018-03-22T04:30:06.818Z,21.17
2018-03-22T04:32:38.198Z,22.42
2018-03-22T04:35:09.842Z,20.98
2018-03-22T04:37:40.884Z,20.73
2018-03-22T04:40:11.735Z,22.95
2018-03-22T04:42:42.556Z,21.25
2018-03-22T04:45:13.387Z,21.50
2018-03-22T04:47:44.037Z,20.10
2018-03-22T04:50:14.981Z,18.20
2018-03-22T04:52:45.767Z,18.55
2018-03-22T04:55:16.613Z,18.30
2018-03-22T04:57:47.996Z,23.45
2018-03-22T05:00:20.335Z,22.83
2018-03-22T05:02:51.268Z,21.75
2018-03-22T05:05:22.500Z,16.95
2018-03-22T05:07:54.986Z,19.50
2018-03-22T05:10:26.402Z,20.23
2018-03-22T05:12:58.172Z,17.92
2018-03-22T05:15:30.239Z,17.02
2018-03-22T05:18:02.746Z,18.30
2018-03-22T05:20:34.255Z,20.12
2018-03-22T05:23:06.342Z,18.83
2018-03-22T05:25:37.645Z,18.95
2018-03-22T05:28:09.132Z,20.42
2018-03-22T05:30:40.948Z,18.08
2018-03-22T05:33:12.308Z,16.95
2018-03-22T05:35:43.597Z,18.17
2018-03-22T05:38:14.825Z,17.83
2018-03-22T05:40:46.721Z,17.95
2018-03-22T05:43:18.594Z,20.92
2018-03-22T05:45:50.501Z,17.75
2018-03-22T05:48:22.937Z,18.80
2018-03-22T05:50:54.902Z,16.85
2018-03-22T05:53:26.810Z,19.98
2018-03-22T05:55:58.988Z,17.27
2018-03-22T05:58:30.939Z,17.73
2018-03-22T06:01:03.800Z,18.40
2018-03-22T06:03:36.211Z,18.00
2018-03-22T06:06:08.058Z,16.62
2018-03-22T06:08:40.457Z,19.67
2018-03-22T06:11:12.937Z,24.35
2018-03-22T06:13:44.901Z,19.33
2018-03-22T06:16:17.655Z,21.27
2018-03-22T06:18:49.851Z,21.17
2018-03-22T06:21:22.455Z,22.60
2018-03-22T06:23:54.587Z,23.65
2018-03-22T06:26:27.496Z,22.08
2018-03-22T06:28:59.574Z,23.23
2018-03-22T06:31:33.132Z,24.00
2018-03-22T06:34:05.569Z,22.45
2018-03-22T06:36:37.575Z,20.45
2018-03-22T06:39:10.100Z,23.30
2018-03-22T06:41:42.428Z,21.55
2018-03-22T06:44:14.690Z,25.05
2018-03-22T06:46:46.881Z,29.60
2018-03-22T06:49:18.163Z,27.00
2018-03-22T06:51:50.103Z,29.52
2018-03-22T06:54:22.585Z,29.08
2018-03-22T06:56:55.419Z,26.50
2018-03-22T06:59:27.404Z,29.35
2018-03-22T07:01:59.595Z,29.75
2018-03-22T07:04:32.779Z,26.15
2018-03-22T07:07:04.234Z,22.85
2018-03-22T07:09:36.862Z,26.25
2018-03-22T07:12:09.574Z,29.05
2018-03-22T07:14:41.933Z,25.08
2018-03-22T07:17:14.333Z,29.20
2018-03-22T07:19:47.206Z,27.08
2018-03-22T07:22:19.119Z,25.23
2018-03-22T07:24:51.652Z,23.05
2018-03-22T07:27:23.971Z,27.55
2018-03-22T07:29:56.018Z,24.92
2018-03-22T07:32:28.543Z,24.37
2018-03-22T07:35:01.398Z,26.92
2018-03-22T07:37:32.975Z,24.75
2018-03-22T07:40:06.264Z,25.83
2018-03-22T07:42:38.468Z,24.63
2018-03-22T07:45:11.396Z,25.15
2018-03-22T07:47:44.197Z,24.23
2018-03-22T07:50:17.307Z,24.70
2018-03-22T07:52:49.224Z,24.73
2018-03-22T07:55:22.983Z,22.65
2018-03-22T07:57:54.831Z,20.52
2018-03-22T08:00:26.690Z,17.15
2018-03-22T08:03:02.911Z,19.95
2018-03-22T08:05:35.580Z,16.23
2018-03-22T08:08:08.547Z,17.80
2018-03-22T08:10:40.585Z,15.90
2018-03-22T08:13:13.066Z,13.90
2018-03-22T08:15:45.066Z,14.50
2018-03-22T08:18:19.676Z,14.02
2018-03-22T08:20:51.795Z,14.10
2018-03-22T08:23:24.872Z,13.50
2018-03-22T08:25:56.897Z,15.63
2018-03-22T08:28:29.026Z,12.20
2018-03-22T08:31:01.942Z,10.95
2018-03-22T08:33:34.542Z,12.10
2018-03-22T08:36:06.194Z,12.90
2018-03-22T08:38:38.846Z,11.18
2018-03-22T08:41:10.634Z,12.27
2018-03-22T08:43:43.234Z,11.30
2018-03-22T08:46:16.161Z,11.02
2018-03-22T08:48:48.756Z,9.43
2018-03-22T08:51:21.329Z,8.48
2018-03-22T08:53:53.221Z,7.55
2018-03-22T08:56:25.538Z,11.05
2018-03-22T08:58:57.932Z,6.97
2018-03-22T09:01:30.930Z,7.00
2018-03-22T09:04:03.483Z,6.62
2018-03-22T09:06:40.776Z,6.30
2018-03-22T09:09:13.519Z,6.43
2018-03-22T09:11:45.699Z,7.37
2018-03-22T09:14:17.648Z,5.28
2018-03-22T09:16:49.393Z,4.07
2018-03-22T09:19:22.971Z,5.53
2018-03-22T09:21:55.108Z,4.05
2018-03-22T09:24:26.774Z,4.50
2018-03-22T09:27:02.236Z,4.10
2018-03-22T09:29:35.050Z,4.03
2018-03-22T09:32:09.908Z,4.57
2018-03-22T09:34:42.754Z,3.60
2018-03-22T09:37:15.835Z,4.03
2018-03-22T09:39:47.588Z,2.80
2018-03-22T09:42:19.515Z,3.10
2018-03-22T09:44:51.828Z,3.30
2018-03-22T09:47:26.139Z,3.57
2018-03-22T09:49:58.075Z,2.90
2018-03-22T09:52:29.918Z,2.83
2018-03-22T09:55:01.969Z,4.13
2018-03-22T09:57:33.702Z,2.53
2018-03-22T10:00:06.326Z,2.93
2018-03-22T10:02:44.542Z,2.90
2018-03-22T10:05:16.422Z,2.90
2018-03-22T10:07:48.451Z,3.30
2018-03-22T10:10:20.386Z,3.10
2018-03-22T10:12:52.537Z,3.17
2018-03-22T10:15:26.370Z,2.83
2018-03-22T10:17:58.933Z,3.33
2018-03-22T10:20:33.633Z,3.50
2018-03-22T10:23:05.458Z,3.90
2018-03-22T10:25:38.505Z,3.27
2018-03-22T10:28:10.687Z,3.53
2018-03-22T10:30:43.555Z,3.07
2018-03-22T10:33:16.184Z,2.30
2018-03-22T10:35:47.575Z,2.80
2018-03-22T10:38:20.853Z,2.27
2018-03-22T10:40:53.913Z,2.50
2018-03-22T10:43:26.999Z,3.67
2018-03-22T10:45:59.837Z,3.97
2018-03-22T10:48:32.551Z,2.67
2018-03-22T10:51:04.150Z,2.27
2018-03-22T10:53:40.416Z,2.50
2018-03-22T10:56:12.082Z,2.80
2018-03-22T10:58:44.925Z,2.40
2018-03-22T11:01:21.045Z,2.20
2018-03-22T11:03:54.724Z,2.00
2018-03-22T11:06:26.880Z,2.90
2018-03-22T11:08:59.404Z,2.93
2018-03-22T11:11:33.519Z,4.90
2018-03-22T11:14:05.485Z,3.13
2018-03-22T11:16:45.522Z,2.20
2018-03-22T11:19:25.682Z,2.43
2018-03-22T11:21:58.560Z,2.97
2018-03-22T11:24:30.713Z,3.53
2018-03-22T11:27:03.562Z,3.37
2018-03-22T11:29:36.458Z,3.90
2018-03-22T11:32:07.994Z,3.47
2018-03-22T11:34:39.240Z,2.90
2018-03-22T11:37:13.758Z,3.03
2018-03-22T11:39:45.520Z,2.80
2018-03-22T11:42:18.168Z,2.23
2018-03-22T11:44:49.788Z,2.33
2018-03-22T11:47:21.877Z,5.30
2018-03-22T11:49:53.260Z,10.23
2018-03-22T11:52:25.021Z,3.00
2018-03-22T11:54:56.789Z,2.17
2018-03-22T11:57:30.402Z,2.50
2018-03-22T12:00:05.728Z,3.00
2018-03-22T12:02:38.439Z,3.00
2018-03-22T12:05:10.888Z,2.57
2018-03-22T12:07:42.463Z,2.57
2018-03-22T12:10:16.184Z,2.00
2018-03-22T12:12:48.514Z,1.93
2018-03-22T12:15:20.532Z,1.93
2018-03-22T12:17:53.494Z,2.03
2018-03-22T12:20:25.486Z,1.90
2018-03-22T12:23:07.481Z,1.63
2018-03-22T12:25:51.389Z,1.77
2018-03-22T12:28:42.383Z,1.60
2018-03-22T12:31:31.934Z,1.70
2018-03-22T12:34:07.646Z,2.13
2018-03-22T12:36:42.753Z,1.77
2018-03-22T12:39:18.491Z,1.70
2018-03-22T12:41:55.136Z,2.73
2018-03-22T12:44:38.174Z,2.03
2018-03-22T12:47:21.480Z,3.07
2018-03-22T12:50:11.886Z,1.57
2018-03-22T12:52:43.994Z,2.43
2018-03-22T12:55:17.228Z,2.10
2018-03-22T12:57:51.844Z,1.53
2018-03-22T13:00:23.322Z,2.67
2018-03-22T13:02:54.792Z,2.00
2018-03-22T13:05:27.006Z,2.10
2018-03-22T13:07:59.485Z,2.60
2018-03-22T13:10:31.944Z,2.40
2018-03-22T13:13:03.419Z,1.73
2018-03-22T13:15:36.615Z,1.87
2018-03-22T13:18:08.047Z,1.50
2018-03-22T13:20:40.215Z,1.93
2018-03-22T13:23:12.065Z,1.57
2018-03-22T13:25:52.887Z,1.77
2018-03-22T13:28:24.847Z,1.67
2018-03-22T13:30:56.833Z,1.83
2018-03-22T13:33:28.375Z,1.90
2018-03-22T13:36:00.025Z,2.20
2018-03-22T13:38:31.998Z,2.00
2018-03-22T13:41:04.209Z,3.57
2018-03-22T13:43:38.007Z,2.00
2018-03-22T13:46:13.728Z,2.47
2018-03-22T13:48:55.989Z,2.53
2018-03-22T13:51:31.908Z,3.13
2018-03-22T13:54:10.601Z,2.50
2018-03-22T13:56:42.664Z,3.97
2018-03-22T13:59:17.478Z,3.40
2018-03-22T14:01:51.157Z,4.10
2018-03-22T14:04:23.515Z,2.87
2018-03-22T14:06:55.899Z,3.17
2018-03-22T14:09:30.760Z,3.10
2018-03-22T14:12:05.146Z,3.07
2018-03-22T14:14:37.821Z,3.37
2018-03-22T14:17:11.523Z,4.13
2018-03-22T14:19:44.434Z,4.13
2018-03-22T14:22:17.621Z,4.50
2018-03-22T14:24:49.082Z,4.80
2018-03-22T14:27:21.178Z,5.53
2018-03-22T14:29:53.084Z,5.20
2018-03-22T14:32:25.326Z,5.23
2018-03-22T14:34:57.549Z,5.00
2018-03-22T14:37:29.139Z,5.03
2018-03-22T14:40:00.856Z,5.90
2018-03-22T14:42:33.765Z,6.10
2018-03-22T14:45:05.128Z,7.43
2018-03-22T14:47:36.510Z,5.63
2018-03-22T14:50:13.232Z,5.37
2018-03-22T14:52:44.698Z,5.70
2018-03-22T14:55:17.012Z,4.27
2018-03-22T14:57:49.341Z,6.17
2018-03-22T15:00:21.374Z,5.33
2018-03-22T15:02:54.641Z,6.03
2018-03-22T15:05:26.361Z,6.70
2018-03-22T15:07:57.447Z,5.97
2018-03-22T15:10:29.558Z,10.67
2018-03-22T15:13:01.359Z,6.33
2018-03-22T15:15:33.707Z,5.97
2018-03-22T15:18:05.397Z,6.93
2018-03-22T15:20:36.706Z,6.83
2018-03-22T15:23:08.294Z,6.40
2018-03-22T15:25:39.553Z,6.63
2018-03-22T15:28:12.306Z,7.10
2018-03-22T15:30:44.716Z,6.40
2018-03-22T15:33:17.671Z,6.90
2018-03-22T15:35:49.596Z,6.83
2018-03-22T15:38:20.882Z,7.63
2018-03-22T15:40:53.242Z,7.93
2018-03-22T15:43:25.205Z,6.50
2018-03-22T15:45:56.515Z,9.30
2018-03-22T15:48:28.485Z,8.13
2018-03-22T15:51:02.914Z,7.90
2018-03-22T15:53:34.438Z,7.70
2018-03-22T15:56:05.998Z,6.43
2018-03-22T15:58:38.407Z,9.20
2018-03-22T16:01:09.933Z,7.10
2018-03-22T16:03:45.053Z,8.03
2018-03-22T16:06:16.501Z,9.60
2018-03-22T16:08:48.481Z,8.73
2018-03-22T16:11:20.550Z,8.97
2018-03-22T16:13:58.236Z,7.87
2018-03-22T16:16:30.635Z,8.80
2018-03-22T16:19:02.313Z,6.37
2018-03-22T16:21:43.802Z,8.03
2018-03-22T16:24:17.726Z,8.33
2018-03-22T16:26:50.067Z,8.37
2018-03-22T16:29:21.586Z,10.37
2018-03-22T16:31:53.641Z,8.80
2018-03-22T16:34:25.328Z,9.87
2018-03-22T16:37:01.876Z,12.23
2018-03-22T16:39:35.766Z,9.73
2018-03-22T16:42:12.800Z,11.27
2018-03-22T16:44:45.121Z,10.80
2018-03-22T16:47:17.579Z,10.97
2018-03-22T16:49:49.112Z,9.80
2018-03-22T16:52:20.648Z,12.30
2018-03-22T16:54:52.073Z,11.00
2018-03-22T16:57:23.240Z,11.37
2018-03-22T16:59:54.587Z,12.63
2018-03-22T17:02:25.785Z,12.37
2018-03-22T17:04:57.887Z,16.47
2018-03-22T17:07:29.630Z,11.63
2018-03-22T17:10:01.053Z,11.67
2018-03-22T17:12:33.105Z,13.03
2018-03-22T17:15:05.202Z,17.23
2018-03-22T17:17:36.552Z,12.40
2018-03-22T17:20:08.073Z,15.10
2018-03-22T17:22:40.436Z,11.80
2018-03-22T17:25:12.083Z,14.60
2018-03-22T17:27:44.139Z,15.03
2018-03-22T17:30:18.698Z,16.67
2018-03-22T17:32:51.091Z,15.80
2018-03-22T17:35:22.580Z,16.30
2018-03-22T17:37:53.995Z,16.80
2018-03-22T17:40:26.114Z,16.10
2018-03-22T17:42:57.708Z,16.13
2018-03-22T17:45:29.258Z,17.50
2018-03-22T17:48:00.550Z,16.43
2018-03-22T17:51:51.944Z,18.47
2018-03-22T17:54:23.507Z,16.93
2018-03-22T17:56:55.117Z,15.80
2018-03-22T17:59:26.564Z,19.30
2018-03-22T18:01:58.454Z,24.27
2018-03-22T18:04:29.784Z,17.67
2018-03-22T18:07:02.087Z,22.77
2018-03-22T18:09:33.527Z,21.07
2018-03-22T18:12:05.058Z,21.27
2018-03-22T18:14:37.027Z,22.30
2018-03-22T18:17:09.301Z,21.73
2018-03-22T18:19:41.334Z,22.60
2018-03-22T18:22:12.682Z,17.90
2018-03-22T18:24:43.779Z,27.40
2018-03-22T18:27:14.994Z,22.27
2018-03-22T18:29:46.591Z,25.83
2018-03-22T18:32:18.307Z,25.90
2018-03-22T18:34:50.489Z,26.00
2018-03-22T18:37:22.012Z,25.13
2018-03-22T18:39:53.342Z,19.83
2018-03-22T18:42:24.690Z,25.67
2018-03-22T18:44:56.293Z,24.73
2018-03-22T18:47:27.824Z,24.20
2018-03-22T18:49:59.731Z,26.13
2018-03-22T18:52:31.013Z,32.13
2018-03-22T18:55:02.344Z,25.93
2018-03-22T18:57:33.805Z,26.60
2018-03-22T19:00:06.543Z,28.17
2018-03-22T19:02:38.222Z,24.30
2018-03-22T19:05:10.304Z,23.80
2018-03-22T19:07:45.429Z,25.80
2018-03-22T19:10:17.874Z,25.17
2018-03-22T19:12:50.023Z,24.67
2018-03-22T19:15:22.204Z,28.57
2018-03-22T19:17:53.518Z,26.97
2018-03-22T19:20:25.259Z,31.47
2018-03-22T19:22:56.626Z,26.77
2018-03-22T19:25:28.031Z,31.20
2018-03-22T19:27:59.191Z,26.47
2018-03-22T19:30:30.271Z,31.47
2018-03-22T19:33:03.412Z,26.90
2018-03-22T19:35:34.608Z,27.57
2018-03-22T19:38:06.488Z,25.87
2018-03-22T19:40:37.789Z,26.43
2018-03-22T19:43:09.278Z,25.70
2018-03-22T19:45:41.254Z,26.57
2018-03-22T19:48:13.286Z,29.77
2018-03-22T19:50:44.637Z,24.20
2018-03-22T19:53:17.044Z,25.50
2018-03-22T19:55:48.399Z,24.20
2018-03-22T19:58:19.456Z,24.90
2018-03-22T20:00:50.608Z,23.37
2018-03-22T20:03:23.009Z,23.70
2018-03-22T20:05:54.137Z,21.10
2018-03-22T20:08:25.358Z,24.00
2018-03-22T20:10:56.530Z,24.70
2018-03-22T20:13:28.419Z,24.10
2018-03-22T20:16:00.493Z,25.03
2018-03-22T20:18:32.779Z,22.77
2018-03-22T20:21:03.919Z,26.27
2018-03-22T20:23:35.120Z,21.00
2018-03-22T20:26:08.362Z,21.27
2018-03-22T20:28:39.419Z,22.13
2018-03-22T20:31:11.198Z,29.07
2018-03-22T20:33:42.805Z,21.37
2018-03-22T20:36:15.776Z,21.50
2018-03-22T20:38:47.561Z,20.97
2018-03-22T20:41:18.809Z,24.17
2018-03-22T20:43:49.789Z,21.97
2018-03-22T20:46:20.959Z,22.60
2018-03-22T20:48:52.912Z,22.43
2018-03-22T20:51:24.068Z,23.73
2018-03-22T20:53:55.944Z,27.17
2018-03-22T20:56:28.941Z,25.63
2018-03-22T20:59:00.408Z,25.73
2018-03-22T21:01:31.647Z,22.80
2018-03-22T21:04:03.858Z,22.67
2018-03-22T21:06:34.948Z,29.07
2018-03-22T21:09:06.484Z,25.60
2018-03-22T21:11:38.601Z,24.93
2018-03-22T21:14:09.749Z,22.50
2018-03-22T21:16:41.316Z,25.73
2018-03-22T21:19:13.021Z,26.33
2018-03-22T21:21:44.292Z,26.17
2018-03-22T21:24:15.689Z,26.53
2018-03-22T21:26:47.812Z,25.00
2018-03-22T21:29:18.874Z,25.03
2018-03-22T21:31:50.363Z,25.83
2018-03-22T21:34:22.665Z,25.87
2018-03-22T21:36:54.173Z,26.30
2018-03-22T21:39:25.850Z,23.27
2018-03-22T21:42:05.344Z,24.47
2018-03-22T21:44:37.043Z,24.33
2018-03-22T21:47:16.642Z,24.17
2018-03-22T21:49:48.223Z,21.33
2018-03-22T21:52:59.244Z,22.20
2018-03-22T21:55:30.838Z,25.30
2018-03-22T21:58:04.845Z,23.67
2018-03-22T22:00:36.118Z,20.67
2018-03-22T22:03:08.058Z,20.47
2018-03-22T22:05:39.727Z,19.57
2018-03-22T22:08:11.754Z,20.70
2018-03-22T22:10:43.461Z,21.50
2018-03-22T22:13:15.711Z,19.57
2018-03-22T22:15:49.019Z,20.63
2018-03-22T22:18:20.879Z,22.73
2018-03-22T22:20:53.894Z,21.07
2018-03-22T22:23:25.568Z,19.37
2018-03-22T22:25:56.874Z,21.17
2018-03-22T22:28:28.580Z,17.67
2018-03-22T22:30:59.835Z,20.23
2018-03-22T22:33:31.142Z,20.67
2018-03-22T22:36:03.024Z,20.57
2018-03-22T22:38:35.070Z,22.23
2018-03-22T22:41:06.583Z,22.77
2018-03-22T22:43:38.838Z,22.00
2018-03-22T22:46:10.338Z,22.73
2018-03-22T22:48:42.571Z,21.23
2018-03-22T22:51:13.930Z,27.67
2018-03-22T22:53:45.883Z,22.73
2018-03-22T22:56:17.531Z,21.40
2018-03-22T22:58:49.936Z,23.83
2018-03-22T23:01:22.467Z,22.73
2018-03-22T23:03:54.123Z,22.37
2018-03-22T23:06:25.628Z,25.77
2018-03-22T23:08:57.074Z,23.33
2018-03-22T23:11:29.719Z,22.60
2018-03-22T23:14:01.121Z,23.40
2018-03-22T23:16:32.771Z,24.07
2018-03-22T23:19:05.693Z,22.03
2018-03-22T23:21:37.093Z,21.57
2018-03-22T23:24:09.664Z,21.87
2018-03-22T23:26:42.245Z,20.37
2018-03-22T23:29:14.705Z,21.97
2018-03-22T23:31:46.451Z,21.27
2018-03-22T23:34:19.524Z,24.23
2018-03-22T23:36:50.992Z,23.73
2018-03-22T23:39:23.488Z,20.97
2018-03-22T23:41:55.880Z,22.93
2018-03-22T23:44:28.179Z,23.53
2018-03-22T23:46:59.915Z,20.60
2018-03-22T23:49:31.700Z,21.30
2018-03-22T23:52:03.291Z,20.70
2018-03-22T23:54:36.187Z,22.07
2018-03-22T23:57:08.504Z,22.20
2018-03-22T23:59:40.414Z,21.40
